createdAt,value
2023-03-12T00:02:25.967Z,7.80
2023-03-12T00:04:52.876Z,7.70
2023-03-12T00:07:19.739Z,7.60
2023-03-12T00:09:46.760Z,7.70
2023-03-12T00:12:14.128Z,7.70
2023-03-12T00:14:41.370Z,7.70
2023-03-12T00:17:08.313Z,7.70
2023-03-12T00:19:35.184Z,7.60
2023-03-12T00:22:04.951Z,7.70
2023-03-12T00:27:42.663Z,7.70
2023-03-12T00:30:11.495Z,7.70
2023-03-12T00:32:38.995Z,7.70
2023-03-12T00:35:07.071Z,7.70
2023-03-12T00:37:34.513Z,7.70
2023-03-12T00:40:01.949Z,7.70
2023-03-12T00:42:29.132Z,7.70
2023-03-12T00:44:56.057Z,7.60
2023-03-12T00:47:23.230Z,7.60
2023-03-12T00:49:50.132Z,7.50
2023-03-12T00:52:17.425Z,7.50
2023-03-12T00:54:44.437Z,7.40
2023-03-12T00:57:11.408Z,7.30
2023-03-12T00:59:40.416Z,7.30
2023-03-12T01:02:08.875Z,7.30
2023-03-12T01:14:19.096Z,7.30
2023-03-12T01:16:46.431Z,7.40
2023-03-12T01:19:13.424Z,7.40
2023-03-12T01:29:40.677Z,7.40
2023-03-12T01:32:07.857Z,7.40
2023-03-12T01:34:35.630Z,7.30
2023-03-12T01:39:47.821Z,7.30
2023-03-12T01:47:47.028Z,7.20
2023-03-12T01:50:14.534Z,7.20
2023-03-12T01:52:41.435Z,7.20
2023-03-12T01:55:14.906Z,7.30
2023-03-12T01:57:48.957Z,7.30
2023-03-12T02:00:20.099Z,7.30
2023-03-12T02:02:49.926Z,7.40
2023-03-12T02:11:13.917Z,7.50
2023-03-12T02:13:40.982Z,7.50
2023-03-12T02:16:09.417Z,7.50
2023-03-12T02:18:36.423Z,7.50
2023-03-12T02:21:23.285Z,7.50
2023-03-12T02:24:06.773Z,7.50
2023-03-12T02:26:35.782Z,7.40
2023-03-12T02:29:03.255Z,7.50
2023-03-12T02:36:50.816Z,7.50
2023-03-12T02:42:03.223Z,7.50
2023-03-12T02:44:33.468Z,7.40
2023-03-12T02:47:02.036Z,7.50
2023-03-12T02:49:32.623Z,7.40
2023-03-12T02:52:00.002Z,7.40
2023-03-12T02:57:29.506Z,7.40
2023-03-12T02:59:56.425Z,7.40
2023-03-12T03:02:24.352Z,7.30
2023-03-12T03:07:36.662Z,7.30
2023-03-12T03:10:09.870Z,7.30
2023-03-12T03:12:37.560Z,7.30
2023-03-12T03:15:05.652Z,7.40
2023-03-12T03:17:32.515Z,7.30
2023-03-12T03:19:59.314Z,7.30
2023-03-12T03:22:26.243Z,7.30
2023-03-12T03:33:54.487Z,7.30
2023-03-12T03:36:23.488Z,7.30
2023-03-12T03:38:50.652Z,7.30
2023-03-12T03:41:19.831Z,7.30
2023-03-12T03:43:47.518Z,7.30
2023-03-12T03:57:06.062Z,7.20
2023-03-12T03:59:32.934Z,7.20
2023-03-12T04:04:45.196Z,7.20
2023-03-12T04:07:12.539Z,7.20
2023-03-12T04:09:39.407Z,7.10
2023-03-12T04:12:06.501Z,7.10
2023-03-12T04:14:33.786Z,7.00
2023-03-12T04:17:00.818Z,7.10
2023-03-12T04:22:03.090Z,7.00
2023-03-12T04:43:37.711Z,6.80
2023-03-12T04:49:40.275Z,6.80
2023-03-12T04:54:42.489Z,6.60
2023-03-12T04:57:09.530Z,6.50
2023-03-12T04:59:36.800Z,6.50
2023-03-12T05:04:48.995Z,6.60
2023-03-12T05:07:16.307Z,6.70
2023-03-12T05:09:44.231Z,6.70
2023-03-12T05:12:11.231Z,6.80
2023-03-12T05:14:39.504Z,6.60
2023-03-12T05:17:56.890Z,6.40
2023-03-12T05:27:08.516Z,6.30
2023-03-12T05:29:35.534Z,6.20
2023-03-12T05:32:03.129Z,6.20
2023-03-12T05:34:31.442Z,6.20
2023-03-12T05:36:58.669Z,6.20
2023-03-12T05:42:18.508Z,6.20
2023-03-12T05:44:45.424Z,6.20
2023-03-12T05:47:12.745Z,6.20
2023-03-12T05:49:39.493Z,6.20
2023-03-12T05:57:50.495Z,6.10
2023-03-12T06:00:17.968Z,6.10
2023-03-12T06:08:06.177Z,6.30
2023-03-12T06:10:33.086Z,6.40
2023-03-12T06:13:00.396Z,6.50
2023-03-12T06:15:33.405Z,6.50
2023-03-12T06:18:00.692Z,6.40
2023-03-12T06:20:27.607Z,6.60
2023-03-12T06:25:40.197Z,6.70
2023-03-12T06:28:07.913Z,6.60
2023-03-12T06:30:35.242Z,6.70
2023-03-12T06:33:04.736Z,6.80
2023-03-12T06:35:31.689Z,6.90
2023-03-12T06:37:58.693Z,6.90
2023-03-12T06:40:26.001Z,6.90
2023-03-12T06:42:53.005Z,6.90
2023-03-12T06:45:21.208Z,6.70
2023-03-12T06:50:33.366Z,6.90
2023-03-12T06:53:00.245Z,7.10
2023-03-12T06:58:04.080Z,7.30
2023-03-12T07:03:06.802Z,7.50
2023-03-12T07:05:34.420Z,7.60
2023-03-12T07:08:01.930Z,7.60
2023-03-12T07:10:29.700Z,7.70
2023-03-12T07:15:32.200Z,7.30
2023-03-12T07:18:01.771Z,7.60
2023-03-12T07:23:15.040Z,7.70
2023-03-12T07:25:43.616Z,7.70
2023-03-12T07:28:12.224Z,7.60
2023-03-12T07:36:00.646Z,7.60
2023-03-12T07:38:27.998Z,7.80
2023-03-12T07:43:30.481Z,7.70
2023-03-12T07:45:57.524Z,7.80
2023-03-12T07:48:24.604Z,7.70
2023-03-12T07:50:52.156Z,7.60
2023-03-12T07:53:19.149Z,7.60
2023-03-12T07:55:47.965Z,7.70
2023-03-12T07:58:16.424Z,7.80
2023-03-12T08:00:43.559Z,7.80
2023-03-12T08:03:11.136Z,7.70
2023-03-12T08:05:38.363Z,7.80
2023-03-12T08:11:37.297Z,8.10
2023-03-12T08:14:05.269Z,8.40
2023-03-12T08:19:18.629Z,9.10
2023-03-12T08:21:45.435Z,9.10
2023-03-12T08:26:57.501Z,8.90
2023-03-12T08:29:24.394Z,9.10
2023-03-12T08:32:04.021Z,9.30
2023-03-12T08:34:34.844Z,9.50
2023-03-12T08:37:05.998Z,9.70
2023-03-12T08:39:33.736Z,9.50
2023-03-12T08:45:15.845Z,9.70
2023-03-12T08:47:44.394Z,9.70
2023-03-12T08:53:18.846Z,9.60
2023-03-12T08:55:56.415Z,9.30
2023-03-12T08:58:29.740Z,9.00
2023-03-12T09:00:59.270Z,9.00
2023-03-12T09:03:26.630Z,9.10
2023-03-12T09:06:24.894Z,9.30
2023-03-12T09:08:51.800Z,9.60
2023-03-12T09:19:26.995Z,10.10
2023-03-12T09:21:53.896Z,10.40
2023-03-12T09:24:22.863Z,10.70
2023-03-12T09:27:04.048Z,10.80
2023-03-12T09:29:34.059Z,10.90
2023-03-12T09:32:00.916Z,11.10
2023-03-12T09:34:27.796Z,11.30
2023-03-12T09:45:51.859Z,11.70
2023-03-12T09:48:33.352Z,11.90
2023-03-12T09:51:31.509Z,12.10
2023-03-12T09:54:03.126Z,12.30
2023-03-12T09:56:30.706Z,12.40
2023-03-12T10:01:50.682Z,12.80
2023-03-12T10:04:20.632Z,13.00
2023-03-12T10:07:18.661Z,13.20
2023-03-12T10:10:07.460Z,13.40
2023-03-12T10:12:55.980Z,13.80
2023-03-12T10:15:48.786Z,14.30
2023-03-12T10:18:48.514Z,15.00
2023-03-12T10:21:50.009Z,15.60
2023-03-12T10:24:29.268Z,16.20
2023-03-12T10:26:58.553Z,17.20
2023-03-12T10:29:36.399Z,17.90
2023-03-12T10:32:08.398Z,17.90
2023-03-12T10:34:43.051Z,18.20
2023-03-12T10:37:22.886Z,18.30
2023-03-12T10:39:50.641Z,18.90
2023-03-12T10:42:27.709Z,20.10
2023-03-12T10:45:05.880Z,21.20
2023-03-12T10:47:40.414Z,21.60
2023-03-12T10:50:18.956Z,22.40
2023-03-12T10:52:49.161Z,23.40
2023-03-12T10:55:35.965Z,24.10
2023-03-12T10:58:06.188Z,25.20
2023-03-12T11:00:34.046Z,25.40
2023-03-12T11:03:06.834Z,25.70
2023-03-12T11:05:36.748Z,26.60
2023-03-12T11:08:04.876Z,27.10
2023-03-12T11:10:41.084Z,27.90
2023-03-12T11:13:28.207Z,28.80
2023-03-12T11:15:58.122Z,29.30
2023-03-12T11:18:30.121Z,30.10
2023-03-12T11:21:18.183Z,30.30
2023-03-12T11:24:07.642Z,30.60
2023-03-12T11:26:49.762Z,30.90
2023-03-12T11:29:31.521Z,30.70
2023-03-12T11:32:25.529Z,31.20
2023-03-12T11:34:53.185Z,31.00
2023-03-12T11:37:52.529Z,31.40
2023-03-12T11:40:22.713Z,31.90
2023-03-12T11:43:12.376Z,32.30
2023-03-12T11:45:53.982Z,32.90
2023-03-12T11:48:28.876Z,32.90
2023-03-12T11:51:20.799Z,33.10
2023-03-12T11:54:19.406Z,32.70
2023-03-12T11:56:53.860Z,31.70
2023-03-12T11:59:48.852Z,31.80
2023-03-12T12:02:28.297Z,31.80
2023-03-12T12:05:16.840Z,32.00
2023-03-12T12:08:22.687Z,32.50
2023-03-12T12:10:55.420Z,33.00
2023-03-12T12:13:30.376Z,33.50
2023-03-12T12:16:34.903Z,34.00
2023-03-12T12:19:23.544Z,34.10
2023-03-12T12:25:21.871Z,35.60
2023-03-12T12:28:19.349Z,36.20
2023-03-12T12:31:12.223Z,36.40
2023-03-12T12:33:51.849Z,36.70
2023-03-12T12:36:19.255Z,36.40
2023-03-12T12:39:17.398Z,36.30
2023-03-12T12:41:57.909Z,36.90
2023-03-12T12:44:33.183Z,37.40
2023-03-12T12:47:05.578Z,37.20
2023-03-12T12:49:44.565Z,37.40
2023-03-12T12:52:21.686Z,38.00
2023-03-12T12:55:32.662Z,38.30
2023-03-12T12:58:07.887Z,37.70
2023-03-12T13:00:45.702Z,38.20
2023-03-12T13:03:17.675Z,38.30
2023-03-12T13:05:53.163Z,38.00
2023-03-12T13:08:34.727Z,38.20
2023-03-12T13:11:20.405Z,38.40
2023-03-12T13:14:12.207Z,38.30
2023-03-12T13:16:44.723Z,38.00
2023-03-12T13:19:14.993Z,38.10
2023-03-12T13:21:54.682Z,37.70
2023-03-12T13:24:35.100Z,38.00
2023-03-12T13:27:28.685Z,38.40
2023-03-12T13:29:57.386Z,38.00
2023-03-12T13:32:56.378Z,37.30
2023-03-12T13:35:23.204Z,37.60
2023-03-12T13:37:52.968Z,37.70
2023-03-12T13:40:32.084Z,37.70
2023-03-12T13:43:08.188Z,38.00
2023-03-12T13:45:59.813Z,37.60
2023-03-12T13:48:28.029Z,37.30
2023-03-12T13:51:12.586Z,37.10
2023-03-12T13:53:40.810Z,37.30
2023-03-12T13:56:12.968Z,37.80
2023-03-12T13:58:58.889Z,37.80
2023-03-12T14:01:41.527Z,37.60
2023-03-12T14:04:15.212Z,37.80
2023-03-12T14:07:23.735Z,37.60
2023-03-12T14:10:14.511Z,37.20
2023-03-12T14:13:03.213Z,37.30
2023-03-12T14:15:40.035Z,37.50
2023-03-12T14:18:18.180Z,37.40
2023-03-12T14:20:58.965Z,37.30
2023-03-12T14:23:37.078Z,37.10
2023-03-12T14:26:06.736Z,36.90
2023-03-12T14:28:41.220Z,36.30
2023-03-12T14:31:17.520Z,36.20
2023-03-12T14:34:16.988Z,36.30
2023-03-12T14:37:02.699Z,36.40
2023-03-12T14:39:50.708Z,36.50
2023-03-12T14:42:29.477Z,36.30
2023-03-12T14:48:06.064Z,35.90
2023-03-12T14:50:40.902Z,35.40
2023-03-12T14:53:23.697Z,35.40
2023-03-12T14:56:05.150Z,35.60
2023-03-12T14:58:41.855Z,35.60
2023-03-12T15:01:31.170Z,35.30
2023-03-12T15:04:03.541Z,35.10
2023-03-12T15:06:34.682Z,35.10
2023-03-12T15:09:09.020Z,34.40
2023-03-12T15:11:40.431Z,33.90
2023-03-12T15:14:13.218Z,34.10
2023-03-12T15:16:42.205Z,33.60
2023-03-12T15:19:14.062Z,33.50
2023-03-12T15:21:41.185Z,33.10
2023-03-12T15:24:13.420Z,33.30
2023-03-12T15:26:41.552Z,33.40
2023-03-12T15:29:28.301Z,32.80
2023-03-12T15:31:58.294Z,32.30
2023-03-12T15:34:35.006Z,32.10
2023-03-12T15:37:21.351Z,31.30
2023-03-12T15:39:51.620Z,30.90
2023-03-12T15:42:23.619Z,31.20
2023-03-12T15:44:57.014Z,30.70
2023-03-12T15:47:34.011Z,30.90
2023-03-12T15:50:07.797Z,30.90
2023-03-12T15:52:36.345Z,30.40
2023-03-12T15:55:12.256Z,30.20
2023-03-12T15:57:48.755Z,29.60
2023-03-12T16:00:46.735Z,28.60
2023-03-12T16:03:21.948Z,26.70
2023-03-12T16:05:51.979Z,25.00
2023-03-12T16:08:29.421Z,23.70
2023-03-12T16:10:56.531Z,22.40
2023-03-12T16:13:31.194Z,21.50
2023-03-12T16:15:58.856Z,21.20
2023-03-12T16:18:25.926Z,20.90
2023-03-12T16:20:53.959Z,21.40
2023-03-12T16:23:21.433Z,22.00
2023-03-12T16:25:52.565Z,22.40
2023-03-12T16:28:21.157Z,22.80
2023-03-12T16:30:48.030Z,22.90
2023-03-12T16:33:17.846Z,22.60
2023-03-12T16:35:44.874Z,22.20
2023-03-12T16:38:12.565Z,21.30
2023-03-12T16:40:43.697Z,20.40
2023-03-12T16:46:19.701Z,18.30
2023-03-12T16:48:52.101Z,17.40
2023-03-12T16:51:20.174Z,16.60
2023-03-12T16:53:53.230Z,15.90
2023-03-12T16:56:28.281Z,15.40
2023-03-12T16:58:55.348Z,14.80
2023-03-12T17:01:24.879Z,14.60
2023-03-12T17:03:54.250Z,14.40
2023-03-12T17:06:26.859Z,14.30
2023-03-12T17:08:55.710Z,14.00
2023-03-12T17:11:27.838Z,13.80
2023-03-12T17:13:58.932Z,13.40
2023-03-12T17:16:26.721Z,13.20
2023-03-12T17:18:56.904Z,12.90
2023-03-12T17:21:23.929Z,12.70
2023-03-12T17:23:51.277Z,12.50
2023-03-12T17:26:19.003Z,12.30
2023-03-12T17:28:45.947Z,12.10
2023-03-12T17:31:12.906Z,12.00
2023-03-12T17:33:39.896Z,11.80
2023-03-12T17:36:09.367Z,11.60
2023-03-12T17:38:36.819Z,11.30
2023-03-12T17:41:09.350Z,11.20
2023-03-12T17:43:41.225Z,11.00
2023-03-12T17:46:11.100Z,10.90
2023-03-12T17:48:38.022Z,10.90
2023-03-12T17:51:07.595Z,10.90
2023-03-12T17:53:34.402Z,10.90
2023-03-12T17:56:01.259Z,10.90
2023-03-12T17:58:28.534Z,10.80
2023-03-12T18:00:55.362Z,10.80
2023-03-12T18:03:22.185Z,10.80
2023-03-12T18:05:50.748Z,10.70
2023-03-12T18:08:18.159Z,10.70
2023-03-12T18:10:45.512Z,10.60
2023-03-12T18:13:12.400Z,10.60
2023-03-12T18:15:39.741Z,10.60
2023-03-12T18:18:07.434Z,10.60
2023-03-12T18:20:39.332Z,10.50
2023-03-12T18:23:07.237Z,10.50
2023-03-12T18:25:34.591Z,10.40
2023-03-12T18:28:01.776Z,10.30
2023-03-12T18:30:28.600Z,10.20
2023-03-12T18:32:55.937Z,10.10
2023-03-12T18:35:28.738Z,10.00
2023-03-12T18:37:59.171Z,10.00
2023-03-12T18:40:29.611Z,9.90
2023-03-12T18:43:00.205Z,9.80
2023-03-12T18:45:28.150Z,9.70
2023-03-12T18:47:55.652Z,9.60
2023-03-12T18:50:23.351Z,9.60
2023-03-12T18:52:50.305Z,9.50
2023-03-12T18:55:17.287Z,9.50
2023-03-12T18:57:47.190Z,9.40
2023-03-12T19:00:17.779Z,9.40
2023-03-12T19:02:47.885Z,9.00
2023-03-12T19:05:15.242Z,8.90
2023-03-12T19:07:42.854Z,8.80
2023-03-12T19:10:11.557Z,8.80
2023-03-12T19:12:50.837Z,8.80
2023-03-12T19:15:19.729Z,8.70
2023-03-12T19:17:46.671Z,8.70
2023-03-12T19:20:14.106Z,8.70
2023-03-12T19:22:40.987Z,8.60
2023-03-12T19:25:08.285Z,8.50
2023-03-12T19:27:35.208Z,8.50
2023-03-12T19:30:02.210Z,8.50
2023-03-12T19:32:40.562Z,8.60
2023-03-12T19:35:11.786Z,8.60
2023-03-12T19:37:39.154Z,8.50
2023-03-12T19:40:07.068Z,8.50
2023-03-12T19:42:34.500Z,8.60
2023-03-12T19:45:01.483Z,8.60
2023-03-12T19:47:29.752Z,8.40
2023-03-12T19:49:57.004Z,8.40
2023-03-12T19:52:24.365Z,8.50
2023-03-12T19:55:03.889Z,8.40
2023-03-12T19:57:31.859Z,8.30
2023-03-12T19:59:58.935Z,8.30
2023-03-12T20:02:26.394Z,8.40
2023-03-12T20:04:53.947Z,8.40
2023-03-12T20:07:20.740Z,8.40
2023-03-12T20:09:47.696Z,8.20
2023-03-12T20:12:14.659Z,8.20
2023-03-12T20:14:42.909Z,8.20
2023-03-12T20:17:12.133Z,8.20
2023-03-12T20:19:39.669Z,8.00
2023-03-12T20:22:07.350Z,7.90
2023-03-12T20:24:35.214Z,7.80
2023-03-12T20:27:03.974Z,7.80
2023-03-12T20:29:31.373Z,7.80
2023-03-12T20:31:58.270Z,7.80
2023-03-12T20:34:25.366Z,7.90
2023-03-12T20:36:52.631Z,7.80
2023-03-12T20:39:19.582Z,7.70
2023-03-12T20:41:49.405Z,7.60
2023-03-12T20:44:16.810Z,7.60
2023-03-12T20:46:44.006Z,7.60
2023-03-12T20:49:11.266Z,7.60
2023-03-12T20:51:38.079Z,7.50
2023-03-12T20:54:04.993Z,7.50
2023-03-12T20:56:31.788Z,7.40
2023-03-12T20:58:59.531Z,7.40
2023-03-12T21:01:28.242Z,7.30
2023-03-12T21:03:58.906Z,7.20
2023-03-12T21:06:27.149Z,7.20
2023-03-12T21:08:58.166Z,7.10
2023-03-12T21:11:26.882Z,7.10
2023-03-12T21:13:54.457Z,7.10
2023-03-12T21:16:21.402Z,7.10
2023-03-12T21:18:48.335Z,7.00
2023-03-12T21:21:15.320Z,6.90
2023-03-12T21:23:42.590Z,6.80
2023-03-12T21:26:11.276Z,6.70
2023-03-12T21:28:38.104Z,6.60
2023-03-12T21:31:10.358Z,6.50
2023-03-12T21:33:37.614Z,6.40
2023-03-12T21:36:06.709Z,6.40
2023-03-12T21:38:36.074Z,6.60
2023-03-12T21:41:07.488Z,6.70
2023-03-12T21:43:34.915Z,6.70
2023-03-12T21:46:11.014Z,6.70
2023-03-12T21:48:38.871Z,6.70
2023-03-12T21:51:08.551Z,6.60
2023-03-12T21:53:36.079Z,6.50
2023-03-12T21:56:04.952Z,6.40
2023-03-12T21:58:32.823Z,6.20
2023-03-12T22:01:17.809Z,6.10
2023-03-12T22:03:45.724Z,6.00
2023-03-12T22:06:14.224Z,6.10
2023-03-12T22:08:42.649Z,6.30
2023-03-12T22:11:10.053Z,6.30
2023-03-12T22:13:37.868Z,6.30
2023-03-12T22:16:08.083Z,6.30
2023-03-12T22:18:39.173Z,6.20
2023-03-12T22:21:07.706Z,6.10
2023-03-12T22:23:38.129Z,6.10
2023-03-12T22:26:06.888Z,6.20
2023-03-12T22:28:34.507Z,6.40
2023-03-12T22:31:04.488Z,6.30
2023-03-12T22:33:31.349Z,6.30
2023-03-12T22:35:58.759Z,6.30
2023-03-12T22:38:25.977Z,6.30
2023-03-12T22:40:55.499Z,6.30
2023-03-12T22:43:24.849Z,6.30
2023-03-12T22:45:54.841Z,6.30
2023-03-12T22:48:21.651Z,6.30
2023-03-12T22:50:54.791Z,6.30
2023-03-12T22:53:21.793Z,6.20
2023-03-12T22:55:57.549Z,6.20
2023-03-12T22:58:24.833Z,6.10
2023-03-12T23:01:08.482Z,6.00
2023-03-12T23:03:40.384Z,6.00
2023-03-12T23:06:33.616Z,6.00
2023-03-12T23:09:04.056Z,5.90
2023-03-12T23:11:31.124Z,5.80
2023-03-12T23:13:58.044Z,5.80
2023-03-12T23:16:28.827Z,5.70
2023-03-12T23:18:56.623Z,5.80
2023-03-12T23:21:24.609Z,5.80
2023-03-12T23:23:52.266Z,5.90
2023-03-12T23:26:21.986Z,5.90
2023-03-12T23:28:51.849Z,5.90
2023-03-12T23:31:19.393Z,5.90
2023-03-12T23:33:46.310Z,5.90
2023-03-12T23:36:18.595Z,5.80
2023-03-12T23:38:46.976Z,5.70
2023-03-12T23:41:25.429Z,5.60
2023-03-12T23:43:53.164Z,5.50
2023-03-12T23:46:23.231Z,5.50
2023-03-12T23:48:53.460Z,5.60
2023-03-12T23:51:22.105Z,5.50
2023-03-12T23:53:51.080Z,5.50
2023-03-12T23:56:21.120Z,5.50
2023-03-12T23:58:48.635Z,5.50
